Terminal Aerodrome Forecast
Issued by NWS Charleston, WV

Current Version | Previous Version | Graphics & Text | Print | Product List | Glossary On
Versions: 1 2 3 4 5 6 7 8 9 10 11 12 13 14 15 16 17 18 19 20 21
000
FTUS41 KRLX 260200 AAA
TAFHTS
TAF AMD
KHTS 260240Z 2603/2624 33004KT P6SM FEW050 SCT200
     FM260900 VRB03KT 6SM BR BKN050
     FM261200 02004KT 6SM -SHRASN OVC035
     FM261400 00000KT 5SM -SHRASN BKN025
     FM262100 30004KT 6SM BR BKN035=

USA.gov is the U.S. government's official web portal to all federal, state and local government web resources and services.